sensor_id;sensor_type;location;lat;lon;timestamp;P1;durP1;ratioP1;P2;durP2;ratioP2
351;SDS011;164;50.784;6.496;2022-11-20T00:01:38;21.85;;;18.95;;
351;SDS011;164;50.784;6.496;2022-11-20T00:04:05;23.67;;;20.38;;
351;SDS011;164;50.784;6.496;2022-11-20T00:06:34;23.90;;;20.60;;
351;SDS011;164;50.784;6.496;2022-11-20T00:09:01;21.58;;;19.15;;
351;SDS011;164;50.784;6.496;2022-11-20T00:11:30;22.75;;;19.08;;
351;SDS011;164;50.784;6.496;2022-11-20T00:13:59;22.33;;;19.23;;
351;SDS011;164;50.784;6.496;2022-11-20T00:16:27;22.77;;;19.85;;
351;SDS011;164;50.784;6.496;2022-11-20T00:18:55;22.75;;;19.67;;
351;SDS011;164;50.784;6.496;2022-11-20T00:21:23;23.95;;;20.38;;
351;SDS011;164;50.784;6.496;2022-11-20T00:23:53;22.83;;;19.05;;
351;SDS011;164;50.784;6.496;2022-11-20T00:26:21;20.65;;;19.00;;
351;SDS011;164;50.784;6.496;2022-11-20T00:28:49;25.00;;;19.52;;
351;SDS011;164;50.784;6.496;2022-11-20T00:31:17;20.88;;;17.92;;
351;SDS011;164;50.784;6.496;2022-11-20T00:33:44;22.58;;;20.90;;
351;SDS011;164;50.784;6.496;2022-11-20T00:36:13;21.98;;;19.55;;
351;SDS011;164;50.784;6.496;2022-11-20T00:38:40;22.77;;;18.45;;
351;SDS011;164;50.784;6.496;2022-11-20T00:41:10;19.23;;;17.38;;
351;SDS011;164;50.784;6.496;2022-11-20T00:43:38;22.30;;;19.75;;
351;SDS011;164;50.784;6.496;2022-11-20T00:46:06;22.45;;;19.77;;
351;SDS011;164;50.784;6.496;2022-11-20T00:48:33;23.75;;;20.23;;
351;SDS011;164;50.784;6.496;2022-11-20T00:51:01;22.30;;;20.20;;
351;SDS011;164;50.784;6.496;2022-11-20T00:53:28;26.00;;;21.45;;
351;SDS011;164;50.784;6.496;2022-11-20T00:55:56;22.15;;;19.05;;
351;SDS011;164;50.784;6.496;2022-11-20T00:58:28;25.50;;;21.17;;
351;SDS011;164;50.784;6.496;2022-11-20T01:00:59;25.88;;;19.33;;
351;SDS011;164;50.784;6.496;2022-11-20T01:03:27;18.85;;;17.48;;
351;SDS011;164;50.784;6.496;2022-11-20T01:05:54;20.42;;;17.90;;
351;SDS011;164;50.784;6.496;2022-11-20T01:08:28;24.58;;;19.95;;
351;SDS011;164;50.784;6.496;2022-11-20T01:10:58;21.77;;;19.13;;
351;SDS011;164;50.784;6.496;2022-11-20T01:13:26;23.67;;;20.48;;
351;SDS011;164;50.784;6.496;2022-11-20T01:16:03;24.55;;;22.13;;
351;SDS011;164;50.784;6.496;2022-11-20T01:18:31;20.15;;;19.08;;
351;SDS011;164;50.784;6.496;2022-11-20T01:21:00;22.15;;;19.13;;
351;SDS011;164;50.784;6.496;2022-11-20T01:23:29;21.55;;;20.08;;
351;SDS011;164;50.784;6.496;2022-11-20T01:25:56;21.67;;;18.98;;
351;SDS011;164;50.784;6.496;2022-11-20T01:28:24;23.50;;;20.55;;
351;SDS011;164;50.784;6.496;2022-11-20T01:30:52;21.95;;;18.65;;
351;SDS011;164;50.784;6.496;2022-11-20T01:33:19;20.08;;;18.67;;
351;SDS011;164;50.784;6.496;2022-11-20T01:35:47;23.88;;;20.63;;
351;SDS011;164;50.784;6.496;2022-11-20T01:38:14;23.35;;;19.42;;
351;SDS011;164;50.784;6.496;2022-11-20T01:40:42;22.15;;;20.95;;
351;SDS011;164;50.784;6.496;2022-11-20T01:43:11;26.67;;;20.42;;
351;SDS011;164;50.784;6.496;2022-11-20T01:45:52;22.92;;;19.17;;
351;SDS011;164;50.784;6.496;2022-11-20T01:48:25;23.17;;;19.95;;
351;SDS011;164;50.784;6.496;2022-11-20T01:50:53;20.05;;;18.98;;
351;SDS011;164;50.784;6.496;2022-11-20T01:53:21;25.20;;;19.52;;
351;SDS011;164;50.784;6.496;2022-11-20T01:55:52;22.25;;;19.92;;
351;SDS011;164;50.784;6.496;2022-11-20T01:58:21;23.63;;;19.90;;
351;SDS011;164;50.784;6.496;2022-11-20T02:00:50;21.35;;;18.90;;
351;SDS011;164;50.784;6.496;2022-11-20T02:03:17;22.45;;;19.40;;
351;SDS011;164;50.784;6.496;2022-11-20T02:05:47;21.60;;;19.05;;
351;SDS011;164;50.784;6.496;2022-11-20T02:08:16;22.55;;;18.98;;
351;SDS011;164;50.784;6.496;2022-11-20T02:10:46;21.45;;;18.20;;
351;SDS011;164;50.784;6.496;2022-11-20T02:13:13;22.45;;;19.30;;
351;SDS011;164;50.784;6.496;2022-11-20T02:15:58;23.95;;;18.95;;
351;SDS011;164;50.784;6.496;2022-11-20T02:18:26;22.83;;;19.30;;
351;SDS011;164;50.784;6.496;2022-11-20T02:20:59;25.77;;;19.58;;
351;SDS011;164;50.784;6.496;2022-11-20T02:23:28;23.02;;;19.58;;
351;SDS011;164;50.784;6.496;2022-11-20T02:25:59;23.25;;;20.40;;
351;SDS011;164;50.784;6.496;2022-11-20T02:28:28;21.55;;;19.42;;
351;SDS011;164;50.784;6.496;2022-11-20T02:30:55;25.92;;;21.02;;
351;SDS011;164;50.784;6.496;2022-11-20T02:33:22;18.40;;;15.73;;
351;SDS011;164;50.784;6.496;2022-11-20T02:35:50;29.20;;;21.73;;
351;SDS011;164;50.784;6.496;2022-11-20T02:38:17;23.75;;;20.90;;
351;SDS011;164;50.784;6.496;2022-11-20T02:40:44;24.40;;;20.20;;
351;SDS011;164;50.784;6.496;2022-11-20T02:43:15;24.52;;;20.23;;
351;SDS011;164;50.784;6.496;2022-11-20T02:45:42;24.77;;;21.15;;
351;SDS011;164;50.784;6.496;2022-11-20T02:48:09;22.92;;;19.80;;
351;SDS011;164;50.784;6.496;2022-11-20T02:50:37;25.63;;;21.55;;
351;SDS011;164;50.784;6.496;2022-11-20T02:53:05;23.58;;;20.40;;
351;SDS011;164;50.784;6.496;2022-11-20T02:55:32;27.73;;;21.17;;
351;SDS011;164;50.784;6.496;2022-11-20T02:58:00;25.40;;;21.30;;
351;SDS011;164;50.784;6.496;2022-11-20T03:00:28;25.88;;;21.40;;
351;SDS011;164;50.784;6.496;2022-11-20T03:02:55;29.67;;;24.52;;
351;SDS011;164;50.784;6.496;2022-11-20T03:05:23;23.90;;;20.35;;
351;SDS011;164;50.784;6.496;2022-11-20T03:07:50;25.85;;;21.67;;
351;SDS011;164;50.784;6.496;2022-11-20T03:10:17;24.77;;;20.85;;
351;SDS011;164;50.784;6.496;2022-11-20T03:12:44;23.63;;;21.05;;
351;SDS011;164;50.784;6.496;2022-11-20T03:15:12;26.88;;;22.08;;
351;SDS011;164;50.784;6.496;2022-11-20T03:17:41;23.58;;;21.20;;
351;SDS011;164;50.784;6.496;2022-11-20T03:20:08;27.48;;;22.35;;
351;SDS011;164;50.784;6.496;2022-11-20T03:22:36;23.05;;;20.23;;
351;SDS011;164;50.784;6.496;2022-11-20T03:25:04;28.27;;;21.70;;
351;SDS011;164;50.784;6.496;2022-11-20T03:27:32;27.08;;;21.63;;
351;SDS011;164;50.784;6.496;2022-11-20T03:29:59;25.38;;;20.60;;
351;SDS011;164;50.784;6.496;2022-11-20T03:32:26;23.35;;;20.23;;
351;SDS011;164;50.784;6.496;2022-11-20T03:34:55;26.23;;;21.85;;
351;SDS011;164;50.784;6.496;2022-11-20T03:37:22;24.98;;;21.23;;
351;SDS011;164;50.784;6.496;2022-11-20T03:39:50;24.50;;;20.30;;
351;SDS011;164;50.784;6.496;2022-11-20T03:42:17;29.58;;;22.98;;
351;SDS011;164;50.784;6.496;2022-11-20T03:45:02;27.83;;;21.55;;
351;SDS011;164;50.784;6.496;2022-11-20T03:47:29;25.58;;;21.02;;
351;SDS011;164;50.784;6.496;2022-11-20T03:49:57;32.78;;;22.98;;
351;SDS011;164;50.784;6.496;2022-11-20T03:52:25;26.17;;;21.77;;
351;SDS011;164;50.784;6.496;2022-11-20T03:54:52;27.85;;;22.60;;
351;SDS011;164;50.784;6.496;2022-11-20T03:57:19;25.35;;;21.30;;
351;SDS011;164;50.784;6.496;2022-11-20T03:59:47;28.98;;;22.83;;
351;SDS011;164;50.784;6.496;2022-11-20T04:02:14;26.90;;;21.60;;
351;SDS011;164;50.784;6.496;2022-11-20T04:04:41;26.63;;;22.95;;
351;SDS011;164;50.784;6.496;2022-11-20T04:07:10;27.70;;;22.92;;
351;SDS011;164;50.784;6.496;2022-11-20T04:09:37;30.42;;;24.85;;
351;SDS011;164;50.784;6.496;2022-11-20T04:12:05;28.95;;;24.13;;
351;SDS011;164;50.784;6.496;2022-11-20T04:14:32;28.60;;;22.15;;
351;SDS011;164;50.784;6.496;2022-11-20T04:16:59;28.15;;;22.30;;
351;SDS011;164;50.784;6.496;2022-11-20T04:19:27;27.17;;;23.63;;
351;SDS011;164;50.784;6.496;2022-11-20T04:21:54;28.50;;;22.38;;
351;SDS011;164;50.784;6.496;2022-11-20T04:24:24;31.02;;;22.95;;
351;SDS011;164;50.784;6.496;2022-11-20T04:26:51;29.77;;;23.60;;
351;SDS011;164;50.784;6.496;2022-11-20T04:29:18;27.42;;;21.75;;
351;SDS011;164;50.784;6.496;2022-11-20T04:31:45;27.90;;;23.30;;
351;SDS011;164;50.784;6.496;2022-11-20T04:34:13;24.73;;;20.83;;
351;SDS011;164;50.784;6.496;2022-11-20T04:36:40;29.27;;;22.10;;
351;SDS011;164;50.784;6.496;2022-11-20T04:39:11;29.80;;;24.60;;
351;SDS011;164;50.784;6.496;2022-11-20T04:41:40;29.27;;;23.20;;
351;SDS011;164;50.784;6.496;2022-11-20T04:44:08;29.55;;;22.08;;
351;SDS011;164;50.784;6.496;2022-11-20T04:46:35;28.20;;;22.70;;
351;SDS011;164;50.784;6.496;2022-11-20T04:49:03;29.55;;;25.05;;
351;SDS011;164;50.784;6.496;2022-11-20T04:51:31;27.17;;;21.65;;
351;SDS011;164;50.784;6.496;2022-11-20T04:59:39;28.15;;;22.83;;
351;SDS011;164;50.784;6.496;2022-11-20T05:02:06;28.83;;;21.92;;
351;SDS011;164;50.784;6.496;2022-11-20T05:04:33;25.17;;;21.23;;
351;SDS011;164;50.784;6.496;2022-11-20T05:07:00;28.77;;;21.20;;
351;SDS011;164;50.784;6.496;2022-11-20T05:09:28;28.02;;;22.20;;
351;SDS011;164;50.784;6.496;2022-11-20T05:11:55;27.50;;;22.50;;
351;SDS011;164;50.784;6.496;2022-11-20T05:14:22;22.75;;;20.65;;
351;SDS011;164;50.784;6.496;2022-11-20T05:16:51;28.05;;;22.13;;
351;SDS011;164;50.784;6.496;2022-11-20T05:19:18;32.92;;;24.65;;
351;SDS011;164;50.784;6.496;2022-11-20T05:21:45;27.83;;;22.40;;
351;SDS011;164;50.784;6.496;2022-11-20T05:24:13;26.00;;;21.50;;
351;SDS011;164;50.784;6.496;2022-11-20T05:26:40;24.20;;;20.75;;
351;SDS011;164;50.784;6.496;2022-11-20T05:29:09;26.17;;;21.77;;
351;SDS011;164;50.784;6.496;2022-11-20T05:31:36;27.88;;;22.55;;
351;SDS011;164;50.784;6.496;2022-11-20T05:34:06;30.08;;;22.50;;
351;SDS011;164;50.784;6.496;2022-11-20T05:36:34;26.77;;;22.52;;
351;SDS011;164;50.784;6.496;2022-11-20T05:39:01;27.23;;;22.02;;
351;SDS011;164;50.784;6.496;2022-11-20T05:41:28;29.05;;;23.42;;
351;SDS011;164;50.784;6.496;2022-11-20T05:43:56;26.08;;;21.45;;
351;SDS011;164;50.784;6.496;2022-11-20T05:46:24;25.63;;;20.75;;
351;SDS011;164;50.784;6.496;2022-11-20T05:48:51;20.77;;;18.70;;
351;SDS011;164;50.784;6.496;2022-11-20T05:51:20;26.52;;;22.33;;
351;SDS011;164;50.784;6.496;2022-11-20T05:53:48;25.20;;;22.02;;
351;SDS011;164;50.784;6.496;2022-11-20T05:56:16;24.27;;;19.85;;
351;SDS011;164;50.784;6.496;2022-11-20T05:58:43;27.05;;;23.35;;
351;SDS011;164;50.784;6.496;2022-11-20T06:01:12;24.90;;;19.75;;
351;SDS011;164;50.784;6.496;2022-11-20T06:03:40;25.25;;;19.45;;
351;SDS011;164;50.784;6.496;2022-11-20T06:06:11;22.60;;;19.05;;
351;SDS011;164;50.784;6.496;2022-11-20T06:08:39;25.08;;;21.25;;
351;SDS011;164;50.784;6.496;2022-11-20T06:11:07;24.73;;;20.83;;
351;SDS011;164;50.784;6.496;2022-11-20T06:13:35;26.92;;;22.77;;
351;SDS011;164;50.784;6.496;2022-11-20T06:16:02;25.67;;;22.35;;
351;SDS011;164;50.784;6.496;2022-11-20T06:18:30;22.13;;;20.67;;
351;SDS011;164;50.784;6.496;2022-11-20T06:21:02;26.65;;;20.98;;
351;SDS011;164;50.784;6.496;2022-11-20T06:23:30;24.63;;;21.23;;
351;SDS011;164;50.784;6.496;2022-11-20T06:26:00;23.13;;;20.55;;
351;SDS011;164;50.784;6.496;2022-11-20T06:28:28;23.98;;;19.40;;
351;SDS011;164;50.784;6.496;2022-11-20T06:30:55;25.98;;;20.48;;
351;SDS011;164;50.784;6.496;2022-11-20T06:33:22;27.42;;;21.63;;
351;SDS011;164;50.784;6.496;2022-11-20T06:35:49;25.13;;;20.52;;
351;SDS011;164;50.784;6.496;2022-11-20T06:38:17;23.20;;;19.02;;
351;SDS011;164;50.784;6.496;2022-11-20T06:40:44;23.38;;;19.27;;
351;SDS011;164;50.784;6.496;2022-11-20T06:43:13;25.40;;;20.50;;
351;SDS011;164;50.784;6.496;2022-11-20T06:45:40;26.05;;;19.98;;
351;SDS011;164;50.784;6.496;2022-11-20T06:48:08;24.05;;;21.50;;
351;SDS011;164;50.784;6.496;2022-11-20T06:50:35;28.10;;;22.15;;
351;SDS011;164;50.784;6.496;2022-11-20T06:53:03;24.20;;;20.95;;
351;SDS011;164;50.784;6.496;2022-11-20T06:55:31;25.90;;;20.90;;
351;SDS011;164;50.784;6.496;2022-11-20T06:57:58;28.33;;;21.27;;
351;SDS011;164;50.784;6.496;2022-11-20T07:00:26;27.85;;;21.30;;
351;SDS011;164;50.784;6.496;2022-11-20T07:02:54;25.65;;;20.63;;
351;SDS011;164;50.784;6.496;2022-11-20T07:05:21;23.55;;;20.98;;
351;SDS011;164;50.784;6.496;2022-11-20T07:07:48;31.25;;;23.17;;
351;SDS011;164;50.784;6.496;2022-11-20T07:10:15;26.00;;;20.92;;
351;SDS011;164;50.784;6.496;2022-11-20T07:12:48;26.15;;;21.13;;
351;SDS011;164;50.784;6.496;2022-11-20T07:15:15;25.90;;;21.15;;
351;SDS011;164;50.784;6.496;2022-11-20T07:17:44;28.48;;;22.17;;
351;SDS011;164;50.784;6.496;2022-11-20T07:20:13;28.85;;;24.25;;
351;SDS011;164;50.784;6.496;2022-11-20T07:22:40;24.85;;;20.20;;
351;SDS011;164;50.784;6.496;2022-11-20T07:25:07;26.83;;;21.63;;
351;SDS011;164;50.784;6.496;2022-11-20T07:27:36;24.33;;;19.77;;
351;SDS011;164;50.784;6.496;2022-11-20T07:30:04;24.45;;;20.70;;
351;SDS011;164;50.784;6.496;2022-11-20T07:32:31;20.67;;;17.20;;
351;SDS011;164;50.784;6.496;2022-11-20T07:35:00;20.73;;;17.15;;
351;SDS011;164;50.784;6.496;2022-11-20T07:37:28;23.45;;;17.98;;
351;SDS011;164;50.784;6.496;2022-11-20T07:39:55;20.95;;;16.60;;
351;SDS011;164;50.784;6.496;2022-11-20T07:42:22;18.92;;;16.05;;
351;SDS011;164;50.784;6.496;2022-11-20T07:44:49;21.00;;;16.50;;
351;SDS011;164;50.784;6.496;2022-11-20T07:47:17;19.50;;;15.30;;
351;SDS011;164;50.784;6.496;2022-11-20T07:49:44;19.73;;;16.20;;
351;SDS011;164;50.784;6.496;2022-11-20T07:52:12;20.90;;;15.98;;
351;SDS011;164;50.784;6.496;2022-11-20T07:54:40;27.33;;;22.35;;
351;SDS011;164;50.784;6.496;2022-11-20T07:57:07;30.63;;;23.42;;
351;SDS011;164;50.784;6.496;2022-11-20T07:59:34;26.20;;;22.13;;
351;SDS011;164;50.784;6.496;2022-11-20T08:02:01;23.52;;;18.83;;
351;SDS011;164;50.784;6.496;2022-11-20T08:04:29;21.73;;;15.55;;
351;SDS011;164;50.784;6.496;2022-11-20T08:06:57;24.90;;;16.30;;
351;SDS011;164;50.784;6.496;2022-11-20T08:09:26;18.80;;;16.73;;
351;SDS011;164;50.784;6.496;2022-11-20T08:11:53;22.80;;;17.95;;
351;SDS011;164;50.784;6.496;2022-11-20T08:14:38;24.25;;;20.58;;
351;SDS011;164;50.784;6.496;2022-11-20T08:17:06;22.85;;;18.52;;
351;SDS011;164;50.784;6.496;2022-11-20T08:19:33;21.60;;;18.38;;
351;SDS011;164;50.784;6.496;2022-11-20T08:22:00;22.63;;;17.75;;
351;SDS011;164;50.784;6.496;2022-11-20T08:24:29;18.00;;;15.32;;
351;SDS011;164;50.784;6.496;2022-11-20T08:26:57;16.67;;;15.43;;
351;SDS011;164;50.784;6.496;2022-11-20T08:29:24;15.93;;;15.05;;
351;SDS011;164;50.784;6.496;2022-11-20T08:31:51;19.48;;;15.65;;
351;SDS011;164;50.784;6.496;2022-11-20T08:34:18;16.15;;;14.98;;
351;SDS011;164;50.784;6.496;2022-11-20T08:36:46;16.50;;;15.40;;
351;SDS011;164;50.784;6.496;2022-11-20T08:39:14;18.00;;;16.35;;
351;SDS011;164;50.784;6.496;2022-11-20T08:41:42;16.95;;;15.77;;
351;SDS011;164;50.784;6.496;2022-11-20T08:44:09;15.77;;;14.52;;
351;SDS011;164;50.784;6.496;2022-11-20T08:46:38;16.27;;;14.43;;
351;SDS011;164;50.784;6.496;2022-11-20T08:49:07;16.35;;;14.13;;
351;SDS011;164;50.784;6.496;2022-11-20T08:51:34;17.48;;;15.90;;
351;SDS011;164;50.784;6.496;2022-11-20T08:54:02;17.13;;;16.23;;
351;SDS011;164;50.784;6.496;2022-11-20T08:56:29;17.50;;;15.27;;
351;SDS011;164;50.784;6.496;2022-11-20T08:58:58;21.10;;;18.48;;
351;SDS011;164;50.784;6.496;2022-11-20T09:01:25;21.00;;;18.65;;
351;SDS011;164;50.784;6.496;2022-11-20T09:03:54;18.42;;;16.98;;
351;SDS011;164;50.784;6.496;2022-11-20T09:06:22;24.70;;;19.50;;
351;SDS011;164;50.784;6.496;2022-11-20T09:08:51;23.55;;;20.90;;
351;SDS011;164;50.784;6.496;2022-11-20T09:11:18;26.95;;;22.45;;
351;SDS011;164;50.784;6.496;2022-11-20T09:13:46;25.85;;;21.25;;
351;SDS011;164;50.784;6.496;2022-11-20T09:16:14;20.77;;;19.77;;
351;SDS011;164;50.784;6.496;2022-11-20T09:18:41;20.73;;;18.48;;
351;SDS011;164;50.784;6.496;2022-11-20T09:21:10;25.25;;;21.45;;
351;SDS011;164;50.784;6.496;2022-11-20T09:23:38;25.63;;;22.08;;
351;SDS011;164;50.784;6.496;2022-11-20T09:26:05;28.50;;;22.70;;
351;SDS011;164;50.784;6.496;2022-11-20T09:28:33;26.85;;;23.02;;
351;SDS011;164;50.784;6.496;2022-11-20T09:31:00;27.10;;;23.80;;
351;SDS011;164;50.784;6.496;2022-11-20T09:33:29;26.85;;;22.20;;
351;SDS011;164;50.784;6.496;2022-11-20T09:35:57;25.63;;;22.33;;
351;SDS011;164;50.784;6.496;2022-11-20T09:38:24;26.30;;;23.55;;
351;SDS011;164;50.784;6.496;2022-11-20T09:40:54;27.85;;;22.98;;
351;SDS011;164;50.784;6.496;2022-11-20T09:43:25;26.67;;;24.42;;
351;SDS011;164;50.784;6.496;2022-11-20T09:46:02;29.17;;;23.50;;
351;SDS011;164;50.784;6.496;2022-11-20T09:48:36;27.15;;;23.83;;
351;SDS011;164;50.784;6.496;2022-11-20T09:51:12;28.80;;;24.38;;
351;SDS011;164;50.784;6.496;2022-11-20T09:53:43;28.55;;;24.58;;
351;SDS011;164;50.784;6.496;2022-11-20T09:56:13;31.00;;;23.65;;
351;SDS011;164;50.784;6.496;2022-11-20T09:58:41;24.83;;;22.23;;
351;SDS011;164;50.784;6.496;2022-11-20T10:01:10;31.10;;;23.73;;
351;SDS011;164;50.784;6.496;2022-11-20T10:03:49;26.10;;;22.65;;
351;SDS011;164;50.784;6.496;2022-11-20T10:06:18;25.73;;;22.13;;
351;SDS011;164;50.784;6.496;2022-11-20T10:08:50;30.50;;;24.27;;
351;SDS011;164;50.784;6.496;2022-11-20T10:11:20;31.48;;;24.95;;
351;SDS011;164;50.784;6.496;2022-11-20T10:13:52;24.27;;;20.92;;
351;SDS011;164;50.784;6.496;2022-11-20T10:16:24;30.60;;;22.45;;
351;SDS011;164;50.784;6.496;2022-11-20T10:19:01;25.02;;;21.95;;
351;SDS011;164;50.784;6.496;2022-11-20T10:21:33;26.98;;;21.08;;
351;SDS011;164;50.784;6.496;2022-11-20T10:24:20;26.98;;;22.25;;
351;SDS011;164;50.784;6.496;2022-11-20T10:26:51;29.33;;;23.17;;
351;SDS011;164;50.784;6.496;2022-11-20T10:29:23;29.60;;;22.75;;
351;SDS011;164;50.784;6.496;2022-11-20T10:31:55;23.35;;;21.50;;
351;SDS011;164;50.784;6.496;2022-11-20T10:34:25;25.52;;;21.27;;
351;SDS011;164;50.784;6.496;2022-11-20T10:36:54;28.98;;;23.55;;
351;SDS011;164;50.784;6.496;2022-11-20T10:39:24;27.02;;;23.00;;
351;SDS011;164;50.784;6.496;2022-11-20T10:41:53;25.15;;;22.13;;
351;SDS011;164;50.784;6.496;2022-11-20T10:44:20;25.02;;;22.35;;
351;SDS011;164;50.784;6.496;2022-11-20T10:47:03;27.08;;;22.60;;
351;SDS011;164;50.784;6.496;2022-11-20T10:49:32;26.40;;;21.83;;
351;SDS011;164;50.784;6.496;2022-11-20T10:52:02;25.17;;;21.77;;
351;SDS011;164;50.784;6.496;2022-11-20T10:54:32;22.60;;;20.20;;
351;SDS011;164;50.784;6.496;2022-11-20T10:57:06;25.45;;;23.05;;
351;SDS011;164;50.784;6.496;2022-11-20T10:59:38;25.80;;;20.73;;
351;SDS011;164;50.784;6.496;2022-11-20T11:02:16;23.30;;;20.17;;
351;SDS011;164;50.784;6.496;2022-11-20T11:04:45;22.75;;;21.67;;
351;SDS011;164;50.784;6.496;2022-11-20T11:07:13;21.88;;;20.77;;
351;SDS011;164;50.784;6.496;2022-11-20T11:09:43;25.40;;;21.58;;
351;SDS011;164;50.784;6.496;2022-11-20T11:12:10;25.42;;;21.65;;
351;SDS011;164;50.784;6.496;2022-11-20T11:14:47;24.70;;;21.33;;
351;SDS011;164;50.784;6.496;2022-11-20T11:17:22;28.90;;;22.10;;
351;SDS011;164;50.784;6.496;2022-11-20T11:20:00;29.42;;;21.23;;
351;SDS011;164;50.784;6.496;2022-11-20T11:22:28;23.60;;;22.40;;
351;SDS011;164;50.784;6.496;2022-11-20T11:24:55;24.42;;;21.45;;
351;SDS011;164;50.784;6.496;2022-11-20T11:27:22;25.15;;;22.48;;
351;SDS011;164;50.784;6.496;2022-11-20T11:29:50;25.27;;;20.63;;
351;SDS011;164;50.784;6.496;2022-11-20T11:32:28;26.90;;;23.25;;
351;SDS011;164;50.784;6.496;2022-11-20T11:35:00;22.13;;;19.58;;
351;SDS011;164;50.784;6.496;2022-11-20T11:37:29;22.92;;;21.65;;
351;SDS011;164;50.784;6.496;2022-11-20T11:40:00;24.83;;;21.38;;
351;SDS011;164;50.784;6.496;2022-11-20T11:42:27;26.02;;;22.45;;
351;SDS011;164;50.784;6.496;2022-11-20T11:44:55;24.08;;;21.73;;
351;SDS011;164;50.784;6.496;2022-11-20T11:47:32;23.58;;;20.00;;
351;SDS011;164;50.784;6.496;2022-11-20T11:52:48;24.08;;;21.15;;
351;SDS011;164;50.784;6.496;2022-11-20T11:55:17;21.13;;;18.42;;
351;SDS011;164;50.784;6.496;2022-11-20T11:57:46;21.35;;;18.60;;
351;SDS011;164;50.784;6.496;2022-11-20T12:00:15;23.60;;;19.52;;
351;SDS011;164;50.784;6.496;2022-11-20T12:02:47;21.88;;;18.83;;
351;SDS011;164;50.784;6.496;2022-11-20T12:05:19;22.92;;;20.60;;
351;SDS011;164;50.784;6.496;2022-11-20T12:07:49;21.05;;;18.95;;
351;SDS011;164;50.784;6.496;2022-11-20T12:10:20;21.48;;;20.27;;
351;SDS011;164;50.784;6.496;2022-11-20T12:12:52;17.63;;;16.70;;
351;SDS011;164;50.784;6.496;2022-11-20T12:15:26;22.27;;;19.80;;
351;SDS011;164;50.784;6.496;2022-11-20T12:17:53;22.27;;;19.90;;
351;SDS011;164;50.784;6.496;2022-11-20T12:20:20;21.70;;;20.63;;
351;SDS011;164;50.784;6.496;2022-11-20T12:22:52;23.20;;;21.05;;
351;SDS011;164;50.784;6.496;2022-11-20T12:25:22;22.10;;;19.42;;
351;SDS011;164;50.784;6.496;2022-11-20T12:30:33;21.15;;;19.80;;
351;SDS011;164;50.784;6.496;2022-11-20T12:33:08;20.65;;;19.58;;
351;SDS011;164;50.784;6.496;2022-11-20T12:35:42;21.67;;;19.27;;
351;SDS011;164;50.784;6.496;2022-11-20T12:38:24;24.00;;;20.42;;
351;SDS011;164;50.784;6.496;2022-11-20T12:40:55;23.38;;;20.23;;
351;SDS011;164;50.784;6.496;2022-11-20T12:43:27;25.77;;;21.45;;
351;SDS011;164;50.784;6.496;2022-11-20T12:46:16;27.50;;;23.08;;
351;SDS011;164;50.784;6.496;2022-11-20T12:48:58;24.55;;;20.38;;
351;SDS011;164;50.784;6.496;2022-11-20T12:51:34;24.50;;;21.92;;
351;SDS011;164;50.784;6.496;2022-11-20T12:54:15;23.30;;;21.20;;
351;SDS011;164;50.784;6.496;2022-11-20T12:56:48;24.60;;;22.33;;
351;SDS011;164;50.784;6.496;2022-11-20T12:59:21;24.55;;;21.77;;
351;SDS011;164;50.784;6.496;2022-11-20T13:01:51;23.17;;;21.13;;
351;SDS011;164;50.784;6.496;2022-11-20T13:07:02;25.60;;;22.95;;
351;SDS011;164;50.784;6.496;2022-11-20T13:09:32;24.33;;;20.63;;
351;SDS011;164;50.784;6.496;2022-11-20T13:12:01;26.05;;;23.17;;
351;SDS011;164;50.784;6.496;2022-11-20T13:14:31;25.73;;;21.13;;
351;SDS011;164;50.784;6.496;2022-11-20T13:17:04;25.25;;;21.48;;
351;SDS011;164;50.784;6.496;2022-11-20T13:19:32;22.23;;;20.80;;
351;SDS011;164;50.784;6.496;2022-11-20T13:22:00;23.00;;;20.55;;
351;SDS011;164;50.784;6.496;2022-11-20T13:24:28;22.42;;;19.58;;
351;SDS011;164;50.784;6.496;2022-11-20T13:27:04;24.50;;;19.98;;
351;SDS011;164;50.784;6.496;2022-11-20T13:29:32;23.35;;;20.65;;
351;SDS011;164;50.784;6.496;2022-11-20T13:32:03;24.25;;;20.80;;
351;SDS011;164;50.784;6.496;2022-11-20T13:34:31;22.67;;;20.13;;
351;SDS011;164;50.784;6.496;2022-11-20T13:36:59;21.25;;;19.35;;
351;SDS011;164;50.784;6.496;2022-11-20T13:39:29;23.38;;;20.80;;
351;SDS011;164;50.784;6.496;2022-11-20T13:41:57;23.52;;;20.10;;
351;SDS011;164;50.784;6.496;2022-11-20T13:44:27;27.70;;;21.63;;
351;SDS011;164;50.784;6.496;2022-11-20T13:46:56;23.00;;;19.23;;
351;SDS011;164;50.784;6.496;2022-11-20T13:49:25;24.38;;;20.65;;
351;SDS011;164;50.784;6.496;2022-11-20T13:51:54;22.50;;;20.15;;
351;SDS011;164;50.784;6.496;2022-11-20T13:57:12;23.20;;;20.30;;
351;SDS011;164;50.784;6.496;2022-11-20T13:59:46;21.83;;;19.95;;
351;SDS011;164;50.784;6.496;2022-11-20T14:02:16;21.77;;;19.63;;
351;SDS011;164;50.784;6.496;2022-11-20T14:04:45;24.20;;;20.25;;
351;SDS011;164;50.784;6.496;2022-11-20T14:07:15;21.80;;;19.70;;
351;SDS011;164;50.784;6.496;2022-11-20T14:09:49;21.83;;;19.17;;
351;SDS011;164;50.784;6.496;2022-11-20T14:12:18;20.85;;;19.48;;
351;SDS011;164;50.784;6.496;2022-11-20T14:14:51;20.80;;;19.30;;
351;SDS011;164;50.784;6.496;2022-11-20T14:17:20;21.98;;;19.30;;
351;SDS011;164;50.784;6.496;2022-11-20T14:19:48;22.15;;;20.33;;
351;SDS011;164;50.784;6.496;2022-11-20T14:22:17;23.20;;;20.05;;
351;SDS011;164;50.784;6.496;2022-11-20T14:24:45;23.05;;;19.58;;
351;SDS011;164;50.784;6.496;2022-11-20T14:27:14;21.80;;;19.00;;
351;SDS011;164;50.784;6.496;2022-11-20T14:29:42;25.38;;;20.77;;
351;SDS011;164;50.784;6.496;2022-11-20T14:32:11;21.25;;;19.98;;
351;SDS011;164;50.784;6.496;2022-11-20T14:34:41;21.10;;;17.05;;
351;SDS011;164;50.784;6.496;2022-11-20T14:37:11;22.10;;;19.25;;
351;SDS011;164;50.784;6.496;2022-11-20T14:39:40;21.35;;;19.05;;
351;SDS011;164;50.784;6.496;2022-11-20T14:42:14;21.80;;;17.83;;
351;SDS011;164;50.784;6.496;2022-11-20T14:44:42;21.38;;;16.38;;
351;SDS011;164;50.784;6.496;2022-11-20T14:47:12;20.35;;;17.38;;
351;SDS011;164;50.784;6.496;2022-11-20T14:49:40;19.02;;;17.27;;
351;SDS011;164;50.784;6.496;2022-11-20T14:52:11;12.23;;;10.55;;
351;SDS011;164;50.784;6.496;2022-11-20T14:54:43;13.57;;;9.80;;
351;SDS011;164;50.784;6.496;2022-11-20T14:57:20;14.73;;;10.52;;
351;SDS011;164;50.784;6.496;2022-11-20T14:59:48;11.73;;;8.30;;
351;SDS011;164;50.784;6.496;2022-11-20T15:02:16;12.02;;;9.20;;
351;SDS011;164;50.784;6.496;2022-11-20T15:04:44;12.55;;;10.45;;
351;SDS011;164;50.784;6.496;2022-11-20T15:07:22;12.98;;;8.73;;
351;SDS011;164;50.784;6.496;2022-11-20T15:09:58;10.25;;;6.55;;
351;SDS011;164;50.784;6.496;2022-11-20T15:12:26;5.75;;;4.80;;
351;SDS011;164;50.784;6.496;2022-11-20T15:14:53;5.78;;;3.88;;
351;SDS011;164;50.784;6.496;2022-11-20T15:17:22;4.43;;;3.78;;
351;SDS011;164;50.784;6.496;2022-11-20T15:19:50;4.43;;;3.10;;
351;SDS011;164;50.784;6.496;2022-11-20T15:22:17;3.33;;;3.03;;
351;SDS011;164;50.784;6.496;2022-11-20T15:24:44;3.90;;;2.70;;
351;SDS011;164;50.784;6.496;2022-11-20T15:27:12;3.47;;;2.55;;
351;SDS011;164;50.784;6.496;2022-11-20T15:29:39;3.63;;;2.35;;
351;SDS011;164;50.784;6.496;2022-11-20T15:32:07;2.35;;;2.15;;
351;SDS011;164;50.784;6.496;2022-11-20T15:34:36;2.97;;;2.65;;
351;SDS011;164;50.784;6.496;2022-11-20T15:37:04;2.17;;;2.03;;
351;SDS011;164;50.784;6.496;2022-11-20T15:39:31;4.32;;;2.47;;
351;SDS011;164;50.784;6.496;2022-11-20T15:41:58;5.13;;;2.40;;
351;SDS011;164;50.784;6.496;2022-11-20T15:44:26;2.55;;;1.90;;
351;SDS011;164;50.784;6.496;2022-11-20T15:46:54;4.82;;;2.28;;